Date,TemperatureHighF,TemperatureAvgF,TemperatureLowF,DewpointHighF,DewpointAvgF,DewpointLowF,HumidityHigh,HumidityAvg,HumidityLow,PressureMaxIn,PressureMinIn,WindSpeedMaxMPH,WindSpeedAvgMPH,GustSpeedMaxMPH,PrecipitationSumIn
2013-7-1,88,78,68,57,48,40,46,35,29,29.79,29.68,8,2,0,0.00
2013-7-2,85,76,67,50,44,40,41,32,24,29.86,29.76,4,1,0,0.00
2013-7-3,89,77,64,55,50,44,49,39,26,29.81,29.68,5,1,0,0.00
2013-7-4,87,78,65,54,50,42,52,37,29,29.70,29.62,7,2,0,0.00
2013-7-5,86,74,65,54,50,42,59,44,31,29.68,29.62,10,2,0,0.00
2013-7-6,81,73,67,53,47,37,51,40,27,29.68,29.63,4,1,0,0.00
2013-7-7,86,75,61,51,42,30,48,32,14,29.75,29.66,7,1,0,0.00
2013-7-8,88,80,66,43,35,31,29,21,13,29.90,29.82,7,1,0,0.00
2013-7-9,89,82,60,48,40,30,37,23,14,29.93,29.86,5,1,0,0.00
2013-7-10,88,72,67,57,42,-100,60,38,18,29.88,29.73,6,1,0,0.00
2013-7-11,72,68,65,59,50,43,80,54,41,29.82,29.73,2,0,0,0.01
2013-7-12,80,69,62,56,50,35,66,52,36,29.83,29.75,9,1,0,0.00
2013-7-13,85,74,58,51,40,28,42,31,16,29.87,29.77,8,1,0,0.00
2013-7-14,85,75,62,52,45,38,48,35,28,29.83,29.74,4,1,0,0.00
2013-7-15,83,74,63,52,46,36,54,38,26,29.77,29.70,15,3,0,0.00
2013-7-16,77,70,65,42,32,20,40,25,12,29.86,29.70,15,3,0,0.00
2013-7-17,82,71,56,29,21,10,30,16,10,29.95,29.86,2,1,0,0.00
2013-7-18,88,78,65,40,32,25,37,20,11,29.90,29.79,3,1,0,0.00
2013-7-19,88,79,62,50,40,22,43,27,13,29.81,29.70,3,1,0,0.00
2013-7-20,79,71,66,62,50,-100,79,51,32,29.74,29.65,4,0,0,0.02
2013-7-21,74,68,62,62,60,56,93,77,62,29.80,29.65,8,0,0,0.05
2013-7-22,75,67,61,63,60,58,94,80,65,29.86,29.78,7,1,0,0.00
2013-7-23,77,67,58,61,56,52,92,71,49,29.90,29.83,5,0,0,0.00
2013-7-24,86,73,60,59,54,47,77,53,36,29.88,29.78,7,1,0,0.00
2013-7-25,88,74,62,54,49,43,61,43,23,29.88,29.80,3,1,0,0.00
2013-7-26,81,70,65,61,50,41,70,50,35,29.94,29.86,4,0,0,0.02
2013-7-27,81,72,61,61,55,49,78,58,37,29.90,29.76,8,1,0,0.00
2013-7-28,76,69,62,52,43,37,53,39,24,29.77,29.70,12,2,0,0.00
2013-7-29,79,68,59,47,37,26,49,32,22,29.89,29.77,4,1,0,0.00
2013-7-30,80,70,60,52,47,39,62,45,31,29.95,29.89,11,1,0,0.00
2013-7-31,79,70,59,52,43,34,71,40,22,29.93,29.83,5,1,0,0.00